Terminal Aerodrome Forecast
Issued by NWS Paducah, KY

Home | Current Version | Previous Version | Text Only | Print | Product List | Glossary On
Versions: 1 2 3 4 5 6 7 8 9 10 11 12 13 14 15 16 17 18
000
FTUS43 KPAH 201124 AAA
TAFEVV
TAF AMD
KEVV 201124Z 2011/2112 00000KT 4SM BR SCT060
     FM201300 17003KT P6SM SCT060
     FM201400 19007KT P6SM SCT050 SCT200
     FM210000 18004KT P6SM FEW200=

USA.gov is the U.S. government's official web portal to all federal, state and local government web resources and services.